sensor_id;sensor_type;location;lat;lon;timestamp;P1;durP1;ratioP1;P2;durP2;ratioP2
78027;SDS011;74605;45.864;11.474;2024-01-30T00:01:19;12.93;;;5.60;;
78027;SDS011;74605;45.864;11.474;2024-01-30T00:03:46;15.15;;;5.72;;
78027;SDS011;74605;45.864;11.474;2024-01-30T00:06:12;13.02;;;6.25;;
78027;SDS011;74605;45.864;11.474;2024-01-30T00:08:38;13.13;;;6.13;;
78027;SDS011;74605;45.864;11.474;2024-01-30T00:11:05;15.05;;;5.55;;
78027;SDS011;74605;45.864;11.474;2024-01-30T00:13:32;15.00;;;5.57;;
78027;SDS011;74605;45.864;11.474;2024-01-30T00:15:58;10.75;;;4.80;;
78027;SDS011;74605;45.864;11.474;2024-01-30T00:18:24;12.93;;;4.68;;
78027;SDS011;74605;45.864;11.474;2024-01-30T00:20:51;10.83;;;4.50;;
78027;SDS011;74605;45.864;11.474;2024-01-30T00:23:17;9.70;;;4.07;;
78027;SDS011;74605;45.864;11.474;2024-01-30T00:25:43;9.75;;;3.90;;
78027;SDS011;74605;45.864;11.474;2024-01-30T00:28:09;8.93;;;3.58;;
78027;SDS011;74605;45.864;11.474;2024-01-30T00:30:36;8.75;;;4.10;;
78027;SDS011;74605;45.864;11.474;2024-01-30T00:33:02;10.83;;;4.03;;
78027;SDS011;74605;45.864;11.474;2024-01-30T00:35:28;12.00;;;4.18;;
78027;SDS011;74605;45.864;11.474;2024-01-30T00:37:55;9.50;;;3.63;;
78027;SDS011;74605;45.864;11.474;2024-01-30T00:40:21;8.82;;;3.97;;
78027;SDS011;74605;45.864;11.474;2024-01-30T00:42:47;8.63;;;3.50;;
78027;SDS011;74605;45.864;11.474;2024-01-30T00:45:13;11.63;;;4.17;;
78027;SDS011;74605;45.864;11.474;2024-01-30T00:47:41;8.60;;;3.30;;
78027;SDS011;74605;45.864;11.474;2024-01-30T00:50:09;11.90;;;4.82;;
78027;SDS011;74605;45.864;11.474;2024-01-30T00:52:37;9.77;;;3.90;;
78027;SDS011;74605;45.864;11.474;2024-01-30T00:55:04;9.57;;;3.53;;
78027;SDS011;74605;45.864;11.474;2024-01-30T00:57:32;8.50;;;3.53;;
78027;SDS011;74605;45.864;11.474;2024-01-30T00:59:58;8.70;;;3.70;;
78027;SDS011;74605;45.864;11.474;2024-01-30T01:02:25;9.45;;;3.45;;
78027;SDS011;74605;45.864;11.474;2024-01-30T01:04:51;8.52;;;3.33;;
78027;SDS011;74605;45.864;11.474;2024-01-30T01:07:17;9.00;;;3.28;;
78027;SDS011;74605;45.864;11.474;2024-01-30T01:09:43;8.07;;;3.03;;
78027;SDS011;74605;45.864;11.474;2024-01-30T01:12:10;8.50;;;2.70;;
78027;SDS011;74605;45.864;11.474;2024-01-30T01:14:36;7.78;;;2.38;;
78027;SDS011;74605;45.864;11.474;2024-01-30T01:17:02;7.35;;;2.30;;
78027;SDS011;74605;45.864;11.474;2024-01-30T01:19:28;9.23;;;3.22;;
78027;SDS011;74605;45.864;11.474;2024-01-30T01:21:54;8.73;;;3.00;;
78027;SDS011;74605;45.864;11.474;2024-01-30T01:24:21;7.38;;;2.50;;
78027;SDS011;74605;45.864;11.474;2024-01-30T01:26:47;7.60;;;2.42;;
78027;SDS011;74605;45.864;11.474;2024-01-30T01:29:13;7.25;;;2.53;;
78027;SDS011;74605;45.864;11.474;2024-01-30T01:31:41;13.35;;;2.90;;
78027;SDS011;74605;45.864;11.474;2024-01-30T01:34:10;7.40;;;2.60;;
78027;SDS011;74605;45.864;11.474;2024-01-30T01:36:36;6.63;;;2.80;;
78027;SDS011;74605;45.864;11.474;2024-01-30T01:39:02;8.07;;;2.58;;
78027;SDS011;74605;45.864;11.474;2024-01-30T01:41:32;7.55;;;2.78;;
78027;SDS011;74605;45.864;11.474;2024-01-30T01:43:59;6.97;;;2.95;;
78027;SDS011;74605;45.864;11.474;2024-01-30T01:46:26;7.20;;;2.47;;
78027;SDS011;74605;45.864;11.474;2024-01-30T01:48:53;8.95;;;2.63;;
78027;SDS011;74605;45.864;11.474;2024-01-30T01:51:20;7.45;;;2.33;;
78027;SDS011;74605;45.864;11.474;2024-01-30T01:53:48;6.07;;;2.08;;
78027;SDS011;74605;45.864;11.474;2024-01-30T01:56:14;7.63;;;2.30;;
78027;SDS011;74605;45.864;11.474;2024-01-30T01:58:42;7.27;;;2.73;;
78027;SDS011;74605;45.864;11.474;2024-01-30T02:01:12;9.10;;;2.83;;
78027;SDS011;74605;45.864;11.474;2024-01-30T02:03:39;7.72;;;2.42;;
78027;SDS011;74605;45.864;11.474;2024-01-30T02:06:07;6.97;;;2.38;;
78027;SDS011;74605;45.864;11.474;2024-01-30T02:08:34;6.88;;;2.45;;
78027;SDS011;74605;45.864;11.474;2024-01-30T02:11:02;5.97;;;2.03;;
78027;SDS011;74605;45.864;11.474;2024-01-30T02:13:29;7.10;;;2.42;;
78027;SDS011;74605;45.864;11.474;2024-01-30T02:15:55;6.95;;;2.30;;
78027;SDS011;74605;45.864;11.474;2024-01-30T02:18:21;7.07;;;2.45;;
78027;SDS011;74605;45.864;11.474;2024-01-30T02:20:48;8.85;;;2.10;;
78027;SDS011;74605;45.864;11.474;2024-01-30T02:23:15;7.30;;;2.20;;
78027;SDS011;74605;45.864;11.474;2024-01-30T02:25:42;5.57;;;1.60;;
78027;SDS011;74605;45.864;11.474;2024-01-30T02:28:14;4.95;;;1.70;;
78027;SDS011;74605;45.864;11.474;2024-01-30T02:30:44;4.70;;;1.63;;
78027;SDS011;74605;45.864;11.474;2024-01-30T02:33:11;5.88;;;2.00;;
78027;SDS011;74605;45.864;11.474;2024-01-30T02:35:38;5.17;;;1.83;;
78027;SDS011;74605;45.864;11.474;2024-01-30T02:38:04;5.65;;;2.15;;
78027;SDS011;74605;45.864;11.474;2024-01-30T02:40:31;6.53;;;2.17;;
78027;SDS011;74605;45.864;11.474;2024-01-30T02:43:01;6.47;;;2.13;;
78027;SDS011;74605;45.864;11.474;2024-01-30T02:45:28;5.70;;;2.00;;
78027;SDS011;74605;45.864;11.474;2024-01-30T02:47:55;5.23;;;1.50;;
78027;SDS011;74605;45.864;11.474;2024-01-30T02:50:21;6.00;;;1.60;;
78027;SDS011;74605;45.864;11.474;2024-01-30T02:52:47;5.40;;;1.70;;
78027;SDS011;74605;45.864;11.474;2024-01-30T02:55:13;6.00;;;1.70;;
78027;SDS011;74605;45.864;11.474;2024-01-30T02:57:42;6.15;;;2.05;;
78027;SDS011;74605;45.864;11.474;2024-01-30T03:00:09;5.70;;;1.90;;
78027;SDS011;74605;45.864;11.474;2024-01-30T03:02:36;4.88;;;1.52;;
78027;SDS011;74605;45.864;11.474;2024-01-30T03:05:02;6.45;;;1.88;;
78027;SDS011;74605;45.864;11.474;2024-01-30T03:07:30;5.53;;;1.52;;
78027;SDS011;74605;45.864;11.474;2024-01-30T03:09:56;30.63;;;4.28;;
78027;SDS011;74605;45.864;11.474;2024-01-30T03:12:24;6.63;;;1.73;;
78027;SDS011;74605;45.864;11.474;2024-01-30T03:14:50;5.60;;;1.63;;
78027;SDS011;74605;45.864;11.474;2024-01-30T03:17:16;5.60;;;1.88;;
78027;SDS011;74605;45.864;11.474;2024-01-30T03:19:42;5.13;;;1.70;;
78027;SDS011;74605;45.864;11.474;2024-01-30T03:22:09;6.68;;;1.80;;
78027;SDS011;74605;45.864;11.474;2024-01-30T03:24:35;4.73;;;1.43;;
78027;SDS011;74605;45.864;11.474;2024-01-30T03:27:01;6.53;;;1.90;;
78027;SDS011;74605;45.864;11.474;2024-01-30T03:29:27;4.82;;;1.50;;
78027;SDS011;74605;45.864;11.474;2024-01-30T03:31:53;7.63;;;1.73;;
78027;SDS011;74605;45.864;11.474;2024-01-30T03:34:19;5.75;;;1.65;;
78027;SDS011;74605;45.864;11.474;2024-01-30T03:36:46;6.87;;;1.93;;
78027;SDS011;74605;45.864;11.474;2024-01-30T03:39:12;5.93;;;2.00;;
78027;SDS011;74605;45.864;11.474;2024-01-30T03:41:38;6.38;;;2.05;;
78027;SDS011;74605;45.864;11.474;2024-01-30T03:44:09;6.97;;;2.08;;
78027;SDS011;74605;45.864;11.474;2024-01-30T03:46:35;9.57;;;2.17;;
78027;SDS011;74605;45.864;11.474;2024-01-30T03:49:02;4.93;;;1.60;;
78027;SDS011;74605;45.864;11.474;2024-01-30T03:51:28;5.75;;;2.10;;
78027;SDS011;74605;45.864;11.474;2024-01-30T03:53:54;19.13;;;3.63;;
78027;SDS011;74605;45.864;11.474;2024-01-30T03:56:21;4.95;;;1.50;;
78027;SDS011;74605;45.864;11.474;2024-01-30T03:58:48;15.73;;;2.80;;
78027;SDS011;74605;45.864;11.474;2024-01-30T04:01:14;7.73;;;2.07;;
78027;SDS011;74605;45.864;11.474;2024-01-30T04:03:41;5.15;;;1.95;;
78027;SDS011;74605;45.864;11.474;2024-01-30T04:06:09;5.60;;;1.63;;
78027;SDS011;74605;45.864;11.474;2024-01-30T04:08:36;8.23;;;1.98;;
78027;SDS011;74605;45.864;11.474;2024-01-30T04:11:03;6.30;;;2.10;;
78027;SDS011;74605;45.864;11.474;2024-01-30T04:13:31;6.87;;;1.77;;
78027;SDS011;74605;45.864;11.474;2024-01-30T04:16:00;5.32;;;1.50;;
78027;SDS011;74605;45.864;11.474;2024-01-30T04:18:28;4.95;;;1.80;;
78027;SDS011;74605;45.864;11.474;2024-01-30T04:20:55;6.60;;;1.92;;
78027;SDS011;74605;45.864;11.474;2024-01-30T04:23:22;6.65;;;1.80;;
78027;SDS011;74605;45.864;11.474;2024-01-30T04:25:48;5.40;;;1.57;;
78027;SDS011;74605;45.864;11.474;2024-01-30T04:28:14;6.78;;;2.28;;
78027;SDS011;74605;45.864;11.474;2024-01-30T04:30:41;6.65;;;2.10;;
78027;SDS011;74605;45.864;11.474;2024-01-30T04:33:07;7.60;;;2.70;;
78027;SDS011;74605;45.864;11.474;2024-01-30T04:35:33;6.63;;;2.10;;
78027;SDS011;74605;45.864;11.474;2024-01-30T04:37:59;6.40;;;2.13;;
78027;SDS011;74605;45.864;11.474;2024-01-30T04:40:25;7.53;;;2.28;;
78027;SDS011;74605;45.864;11.474;2024-01-30T04:42:51;6.03;;;2.10;;
78027;SDS011;74605;45.864;11.474;2024-01-30T04:45:17;7.65;;;1.98;;
78027;SDS011;74605;45.864;11.474;2024-01-30T04:47:43;8.02;;;2.30;;
78027;SDS011;74605;45.864;11.474;2024-01-30T04:50:11;5.87;;;2.10;;
78027;SDS011;74605;45.864;11.474;2024-01-30T04:52:37;6.32;;;2.00;;
78027;SDS011;74605;45.864;11.474;2024-01-30T04:55:03;8.43;;;2.50;;
78027;SDS011;74605;45.864;11.474;2024-01-30T04:57:30;6.82;;;1.95;;
78027;SDS011;74605;45.864;11.474;2024-01-30T04:59:57;7.72;;;2.30;;
78027;SDS011;74605;45.864;11.474;2024-01-30T05:02:23;8.77;;;2.33;;
78027;SDS011;74605;45.864;11.474;2024-01-30T05:04:49;7.28;;;2.30;;
78027;SDS011;74605;45.864;11.474;2024-01-30T05:07:15;9.13;;;2.65;;
78027;SDS011;74605;45.864;11.474;2024-01-30T05:09:41;6.88;;;2.53;;
78027;SDS011;74605;45.864;11.474;2024-01-30T05:12:07;12.75;;;2.72;;
78027;SDS011;74605;45.864;11.474;2024-01-30T05:14:33;15.00;;;6.32;;
78027;SDS011;74605;45.864;11.474;2024-01-30T05:16:59;9.80;;;2.90;;
78027;SDS011;74605;45.864;11.474;2024-01-30T05:19:26;8.07;;;3.08;;
78027;SDS011;74605;45.864;11.474;2024-01-30T05:21:52;6.35;;;2.47;;
78027;SDS011;74605;45.864;11.474;2024-01-30T05:24:18;6.57;;;2.50;;
78027;SDS011;74605;45.864;11.474;2024-01-30T05:26:44;12.82;;;2.90;;
78027;SDS011;74605;45.864;11.474;2024-01-30T05:29:10;8.85;;;2.50;;
78027;SDS011;74605;45.864;11.474;2024-01-30T05:31:36;6.75;;;2.35;;
78027;SDS011;74605;45.864;11.474;2024-01-30T05:34:02;16.88;;;2.78;;
78027;SDS011;74605;45.864;11.474;2024-01-30T05:36:29;7.90;;;2.50;;
78027;SDS011;74605;45.864;11.474;2024-01-30T05:38:55;10.23;;;3.17;;
78027;SDS011;74605;45.864;11.474;2024-01-30T05:41:22;10.35;;;2.83;;
78027;SDS011;74605;45.864;11.474;2024-01-30T05:43:49;12.18;;;3.28;;
78027;SDS011;74605;45.864;11.474;2024-01-30T05:46:15;9.98;;;2.67;;
78027;SDS011;74605;45.864;11.474;2024-01-30T05:48:41;7.10;;;2.80;;
78027;SDS011;74605;45.864;11.474;2024-01-30T05:51:07;8.15;;;2.42;;
78027;SDS011;74605;45.864;11.474;2024-01-30T05:53:34;8.80;;;3.17;;
78027;SDS011;74605;45.864;11.474;2024-01-30T05:56:03;11.95;;;3.90;;
78027;SDS011;74605;45.864;11.474;2024-01-30T05:58:29;9.02;;;3.88;;
78027;SDS011;74605;45.864;11.474;2024-01-30T06:00:59;12.40;;;4.23;;
78027;SDS011;74605;45.864;11.474;2024-01-30T06:03:25;8.68;;;4.35;;
78027;SDS011;74605;45.864;11.474;2024-01-30T06:05:51;10.50;;;4.57;;
78027;SDS011;74605;45.864;11.474;2024-01-30T06:08:17;11.98;;;4.40;;
78027;SDS011;74605;45.864;11.474;2024-01-30T06:10:44;15.15;;;5.10;;
78027;SDS011;74605;45.864;11.474;2024-01-30T06:13:10;12.53;;;5.07;;
78027;SDS011;74605;45.864;11.474;2024-01-30T06:15:36;24.27;;;7.43;;
78027;SDS011;74605;45.864;11.474;2024-01-30T06:18:02;15.60;;;8.48;;
78027;SDS011;74605;45.864;11.474;2024-01-30T06:20:29;12.90;;;5.88;;
78027;SDS011;74605;45.864;11.474;2024-01-30T06:22:55;10.82;;;5.28;;
78027;SDS011;74605;45.864;11.474;2024-01-30T06:25:21;14.13;;;4.90;;
78027;SDS011;74605;45.864;11.474;2024-01-30T06:27:48;13.20;;;4.40;;
78027;SDS011;74605;45.864;11.474;2024-01-30T06:30:14;11.25;;;4.45;;
78027;SDS011;74605;45.864;11.474;2024-01-30T06:32:40;13.55;;;4.57;;
78027;SDS011;74605;45.864;11.474;2024-01-30T06:35:07;23.75;;;11.98;;
78027;SDS011;74605;45.864;11.474;2024-01-30T06:37:33;26.93;;;13.03;;
78027;SDS011;74605;45.864;11.474;2024-01-30T06:40:00;13.90;;;7.10;;
78027;SDS011;74605;45.864;11.474;2024-01-30T06:42:26;13.75;;;4.97;;
78027;SDS011;74605;45.864;11.474;2024-01-30T06:44:52;10.48;;;4.20;;
78027;SDS011;74605;45.864;11.474;2024-01-30T06:47:18;15.57;;;5.50;;
78027;SDS011;74605;45.864;11.474;2024-01-30T06:49:44;16.37;;;7.13;;
78027;SDS011;74605;45.864;11.474;2024-01-30T06:52:10;18.98;;;8.60;;
78027;SDS011;74605;45.864;11.474;2024-01-30T06:54:36;24.65;;;13.80;;
78027;SDS011;74605;45.864;11.474;2024-01-30T06:57:03;23.85;;;13.18;;
78027;SDS011;74605;45.864;11.474;2024-01-30T06:59:29;21.02;;;11.90;;
78027;SDS011;74605;45.864;11.474;2024-01-30T07:01:56;15.97;;;5.70;;
78027;SDS011;74605;45.864;11.474;2024-01-30T07:04:22;13.98;;;5.53;;
78027;SDS011;74605;45.864;11.474;2024-01-30T07:06:49;11.45;;;4.90;;
78027;SDS011;74605;45.864;11.474;2024-01-30T07:09:15;21.70;;;9.77;;
78027;SDS011;74605;45.864;11.474;2024-01-30T07:11:40;21.37;;;7.70;;
78027;SDS011;74605;45.864;11.474;2024-01-30T07:14:07;18.23;;;5.95;;
78027;SDS011;74605;45.864;11.474;2024-01-30T07:16:34;14.25;;;5.60;;
78027;SDS011;74605;45.864;11.474;2024-01-30T07:19:01;18.17;;;5.80;;
78027;SDS011;74605;45.864;11.474;2024-01-30T07:21:27;16.60;;;5.17;;
78027;SDS011;74605;45.864;11.474;2024-01-30T07:29:11;15.32;;;6.47;;
78027;SDS011;74605;45.864;11.474;2024-01-30T07:31:37;29.05;;;11.07;;
78027;SDS011;74605;45.864;11.474;2024-01-30T07:34:03;60.53;;;11.70;;
78027;SDS011;74605;45.864;11.474;2024-01-30T07:36:29;35.70;;;9.93;;
78027;SDS011;74605;45.864;11.474;2024-01-30T07:38:55;22.33;;;9.95;;
78027;SDS011;74605;45.864;11.474;2024-01-30T07:41:21;23.63;;;9.03;;
78027;SDS011;74605;45.864;11.474;2024-01-30T07:43:48;20.60;;;7.78;;
78027;SDS011;74605;45.864;11.474;2024-01-30T07:46:14;19.45;;;7.53;;
78027;SDS011;74605;45.864;11.474;2024-01-30T07:48:40;22.92;;;8.90;;
78027;SDS011;74605;45.864;11.474;2024-01-30T07:51:06;25.83;;;10.07;;
78027;SDS011;74605;45.864;11.474;2024-01-30T07:53:32;27.77;;;12.07;;
78027;SDS011;74605;45.864;11.474;2024-01-30T07:55:58;25.38;;;11.75;;
78027;SDS011;74605;45.864;11.474;2024-01-30T07:58:24;24.23;;;11.15;;
78027;SDS011;74605;45.864;11.474;2024-01-30T08:00:52;30.43;;;13.13;;
78027;SDS011;74605;45.864;11.474;2024-01-30T08:03:19;35.33;;;12.90;;
78027;SDS011;74605;45.864;11.474;2024-01-30T08:05:45;32.22;;;14.32;;
78027;SDS011;74605;45.864;11.474;2024-01-30T08:08:11;30.45;;;14.35;;
78027;SDS011;74605;45.864;11.474;2024-01-30T08:10:37;32.22;;;14.90;;
78027;SDS011;74605;45.864;11.474;2024-01-30T08:13:03;27.30;;;13.00;;
78027;SDS011;74605;45.864;11.474;2024-01-30T08:15:29;23.33;;;10.57;;
78027;SDS011;74605;45.864;11.474;2024-01-30T08:17:55;24.13;;;9.40;;
78027;SDS011;74605;45.864;11.474;2024-01-30T08:20:25;23.58;;;9.73;;
78027;SDS011;74605;45.864;11.474;2024-01-30T08:22:52;23.80;;;11.00;;
78027;SDS011;74605;45.864;11.474;2024-01-30T08:25:18;23.13;;;11.50;;
78027;SDS011;74605;45.864;11.474;2024-01-30T08:27:44;26.02;;;11.30;;
78027;SDS011;74605;45.864;11.474;2024-01-30T08:30:10;23.80;;;10.48;;
78027;SDS011;74605;45.864;11.474;2024-01-30T08:32:36;26.00;;;12.05;;
78027;SDS011;74605;45.864;11.474;2024-01-30T08:35:02;27.90;;;12.63;;
78027;SDS011;74605;45.864;11.474;2024-01-30T08:37:29;25.92;;;11.60;;
78027;SDS011;74605;45.864;11.474;2024-01-30T08:39:55;27.15;;;12.05;;
78027;SDS011;74605;45.864;11.474;2024-01-30T08:42:22;24.90;;;12.93;;
78027;SDS011;74605;45.864;11.474;2024-01-30T08:44:48;23.92;;;11.73;;
78027;SDS011;74605;45.864;11.474;2024-01-30T08:47:16;19.30;;;10.50;;
78027;SDS011;74605;45.864;11.474;2024-01-30T08:49:43;22.63;;;11.13;;
78027;SDS011;74605;45.864;11.474;2024-01-30T08:52:12;16.35;;;8.70;;
78027;SDS011;74605;45.864;11.474;2024-01-30T08:54:38;16.75;;;8.40;;
78027;SDS011;74605;45.864;11.474;2024-01-30T08:57:05;18.52;;;8.77;;
78027;SDS011;74605;45.864;11.474;2024-01-30T08:59:31;16.77;;;8.20;;
78027;SDS011;74605;45.864;11.474;2024-01-30T09:01:57;14.95;;;7.13;;
78027;SDS011;74605;45.864;11.474;2024-01-30T09:04:24;15.45;;;7.45;;
78027;SDS011;74605;45.864;11.474;2024-01-30T09:06:51;17.20;;;7.40;;
78027;SDS011;74605;45.864;11.474;2024-01-30T09:09:17;14.80;;;7.43;;
78027;SDS011;74605;45.864;11.474;2024-01-30T09:11:44;12.02;;;6.13;;
78027;SDS011;74605;45.864;11.474;2024-01-30T09:14:10;15.43;;;9.02;;
78027;SDS011;74605;45.864;11.474;2024-01-30T09:16:37;13.90;;;7.03;;
78027;SDS011;74605;45.864;11.474;2024-01-30T09:19:03;16.40;;;7.30;;
78027;SDS011;74605;45.864;11.474;2024-01-30T09:21:29;14.13;;;6.70;;
78027;SDS011;74605;45.864;11.474;2024-01-30T09:24:00;15.38;;;6.57;;
78027;SDS011;74605;45.864;11.474;2024-01-30T09:26:31;14.13;;;6.53;;
78027;SDS011;74605;45.864;11.474;2024-01-30T09:28:57;15.05;;;6.40;;
78027;SDS011;74605;45.864;11.474;2024-01-30T09:31:23;13.05;;;5.90;;
78027;SDS011;74605;45.864;11.474;2024-01-30T09:33:49;13.37;;;5.60;;
78027;SDS011;74605;45.864;11.474;2024-01-30T09:36:16;17.58;;;8.05;;
78027;SDS011;74605;45.864;11.474;2024-01-30T09:38:44;10.75;;;5.32;;
78027;SDS011;74605;45.864;11.474;2024-01-30T09:41:11;14.50;;;7.05;;
78027;SDS011;74605;45.864;11.474;2024-01-30T09:43:38;11.20;;;4.63;;
78027;SDS011;74605;45.864;11.474;2024-01-30T09:46:05;17.17;;;7.07;;
78027;SDS011;74605;45.864;11.474;2024-01-30T09:48:33;11.63;;;5.45;;
78027;SDS011;74605;45.864;11.474;2024-01-30T09:51:00;10.55;;;4.60;;
78027;SDS011;74605;45.864;11.474;2024-01-30T09:53:27;13.63;;;4.70;;
78027;SDS011;74605;45.864;11.474;2024-01-30T09:55:53;9.52;;;3.50;;
78027;SDS011;74605;45.864;11.474;2024-01-30T09:58:19;9.53;;;4.17;;
78027;SDS011;74605;45.864;11.474;2024-01-30T10:00:47;10.77;;;3.95;;
78027;SDS011;74605;45.864;11.474;2024-01-30T10:03:13;12.55;;;5.18;;
78027;SDS011;74605;45.864;11.474;2024-01-30T10:05:40;8.80;;;3.88;;
78027;SDS011;74605;45.864;11.474;2024-01-30T10:08:06;7.50;;;2.60;;
78027;SDS011;74605;45.864;11.474;2024-01-30T10:10:35;6.50;;;2.77;;
78027;SDS011;74605;45.864;11.474;2024-01-30T10:13:01;23.73;;;4.63;;
78027;SDS011;74605;45.864;11.474;2024-01-30T10:15:28;27.42;;;4.90;;
78027;SDS011;74605;45.864;11.474;2024-01-30T10:17:54;14.82;;;3.83;;
78027;SDS011;74605;45.864;11.474;2024-01-30T10:20:21;32.92;;;12.85;;
78027;SDS011;74605;45.864;11.474;2024-01-30T10:22:48;50.13;;;27.40;;
78027;SDS011;74605;45.864;11.474;2024-01-30T10:25:14;27.63;;;5.40;;
78027;SDS011;74605;45.864;11.474;2024-01-30T10:27:41;40.17;;;7.65;;
78027;SDS011;74605;45.864;11.474;2024-01-30T10:30:07;22.75;;;6.78;;
78027;SDS011;74605;45.864;11.474;2024-01-30T10:32:34;15.50;;;4.10;;
78027;SDS011;74605;45.864;11.474;2024-01-30T10:35:01;16.57;;;4.00;;
78027;SDS011;74605;45.864;11.474;2024-01-30T10:37:27;9.77;;;3.00;;
78027;SDS011;74605;45.864;11.474;2024-01-30T10:39:56;19.15;;;3.80;;
78027;SDS011;74605;45.864;11.474;2024-01-30T10:42:30;18.77;;;3.40;;
78027;SDS011;74605;45.864;11.474;2024-01-30T10:45:08;6.07;;;2.40;;
78027;SDS011;74605;45.864;11.474;2024-01-30T10:47:37;55.30;;;6.33;;
78027;SDS011;74605;45.864;11.474;2024-01-30T10:50:07;28.40;;;4.35;;
78027;SDS011;74605;45.864;11.474;2024-01-30T10:52:35;36.33;;;6.35;;
78027;SDS011;74605;45.864;11.474;2024-01-30T10:55:02;14.45;;;3.50;;
78027;SDS011;74605;45.864;11.474;2024-01-30T10:57:36;29.30;;;5.55;;
78027;SDS011;74605;45.864;11.474;2024-01-30T11:00:10;12.53;;;3.40;;
78027;SDS011;74605;45.864;11.474;2024-01-30T11:02:41;24.92;;;3.85;;
78027;SDS011;74605;45.864;11.474;2024-01-30T11:05:10;29.50;;;4.43;;
78027;SDS011;74605;45.864;11.474;2024-01-30T11:07:38;10.95;;;2.72;;
78027;SDS011;74605;45.864;11.474;2024-01-30T11:10:06;9.88;;;3.00;;
78027;SDS011;74605;45.864;11.474;2024-01-30T11:12:38;20.33;;;4.60;;
78027;SDS011;74605;45.864;11.474;2024-01-30T11:15:09;18.90;;;4.53;;
78027;SDS011;74605;45.864;11.474;2024-01-30T11:20:19;23.05;;;8.50;;
78027;SDS011;74605;45.864;11.474;2024-01-30T11:22:47;44.88;;;8.80;;
78027;SDS011;74605;45.864;11.474;2024-01-30T11:25:15;38.90;;;6.70;;
78027;SDS011;74605;45.864;11.474;2024-01-30T11:27:45;42.83;;;7.53;;
78027;SDS011;74605;45.864;11.474;2024-01-30T11:30:31;24.02;;;4.80;;
78027;SDS011;74605;45.864;11.474;2024-01-30T11:32:59;28.65;;;7.35;;
78027;SDS011;74605;45.864;11.474;2024-01-30T11:35:43;18.27;;;4.22;;
78027;SDS011;74605;45.864;11.474;2024-01-30T11:38:13;15.60;;;2.97;;
78027;SDS011;74605;45.864;11.474;2024-01-30T11:40:40;11.65;;;3.80;;
78027;SDS011;74605;45.864;11.474;2024-01-30T11:43:07;40.10;;;6.63;;
78027;SDS011;74605;45.864;11.474;2024-01-30T11:45:35;25.00;;;5.70;;
78027;SDS011;74605;45.864;11.474;2024-01-30T11:48:02;32.88;;;4.70;;
78027;SDS011;74605;45.864;11.474;2024-01-30T11:50:29;13.20;;;3.10;;
78027;SDS011;74605;45.864;11.474;2024-01-30T11:52:57;13.43;;;3.30;;
78027;SDS011;74605;45.864;11.474;2024-01-30T11:55:24;16.17;;;4.45;;
78027;SDS011;74605;45.864;11.474;2024-01-30T11:57:51;21.77;;;4.15;;
78027;SDS011;74605;45.864;11.474;2024-01-30T12:00:20;12.38;;;3.00;;
78027;SDS011;74605;45.864;11.474;2024-01-30T12:02:54;18.47;;;6.73;;
78027;SDS011;74605;45.864;11.474;2024-01-30T12:05:25;16.98;;;4.18;;
78027;SDS011;74605;45.864;11.474;2024-01-30T12:07:52;19.25;;;5.18;;
78027;SDS011;74605;45.864;11.474;2024-01-30T12:10:19;20.42;;;5.85;;
78027;SDS011;74605;45.864;11.474;2024-01-30T12:12:46;11.82;;;3.25;;
78027;SDS011;74605;45.864;11.474;2024-01-30T12:15:14;17.63;;;4.57;;
78027;SDS011;74605;45.864;11.474;2024-01-30T12:17:41;11.75;;;3.22;;
78027;SDS011;74605;45.864;11.474;2024-01-30T12:20:08;6.70;;;2.60;;
78027;SDS011;74605;45.864;11.474;2024-01-30T12:22:44;15.02;;;3.08;;
78027;SDS011;74605;45.864;11.474;2024-01-30T12:25:11;21.50;;;5.53;;
78027;SDS011;74605;45.864;11.474;2024-01-30T12:27:39;13.60;;;4.03;;
78027;SDS011;74605;45.864;11.474;2024-01-30T12:30:12;12.73;;;3.38;;
78027;SDS011;74605;45.864;11.474;2024-01-30T12:32:49;15.68;;;3.85;;
78027;SDS011;74605;45.864;11.474;2024-01-30T12:35:17;21.52;;;6.38;;
78027;SDS011;74605;45.864;11.474;2024-01-30T12:37:44;12.05;;;4.00;;
78027;SDS011;74605;45.864;11.474;2024-01-30T12:40:13;15.93;;;4.00;;
78027;SDS011;74605;45.864;11.474;2024-01-30T12:42:40;11.98;;;3.83;;
78027;SDS011;74605;45.864;11.474;2024-01-30T12:45:08;11.63;;;3.63;;
78027;SDS011;74605;45.864;11.474;2024-01-30T12:47:35;42.35;;;7.82;;
78027;SDS011;74605;45.864;11.474;2024-01-30T12:50:01;22.02;;;4.43;;
78027;SDS011;74605;45.864;11.474;2024-01-30T12:52:27;27.30;;;5.17;;
78027;SDS011;74605;45.864;11.474;2024-01-30T12:54:54;14.07;;;4.85;;
78027;SDS011;74605;45.864;11.474;2024-01-30T12:57:20;21.50;;;5.05;;
78027;SDS011;74605;45.864;11.474;2024-01-30T12:59:46;27.08;;;5.72;;
78027;SDS011;74605;45.864;11.474;2024-01-30T13:02:13;15.15;;;4.78;;
78027;SDS011;74605;45.864;11.474;2024-01-30T13:04:40;20.13;;;4.13;;
78027;SDS011;74605;45.864;11.474;2024-01-30T13:07:06;12.05;;;3.72;;
78027;SDS011;74605;45.864;11.474;2024-01-30T13:09:32;11.55;;;4.05;;
78027;SDS011;74605;45.864;11.474;2024-01-30T13:11:58;11.07;;;3.10;;
78027;SDS011;74605;45.864;11.474;2024-01-30T13:14:28;9.55;;;2.67;;
78027;SDS011;74605;45.864;11.474;2024-01-30T13:16:54;12.63;;;3.73;;
78027;SDS011;74605;45.864;11.474;2024-01-30T13:19:20;24.50;;;4.40;;
78027;SDS011;74605;45.864;11.474;2024-01-30T13:21:46;13.73;;;4.30;;
78027;SDS011;74605;45.864;11.474;2024-01-30T13:24:13;32.13;;;7.35;;
78027;SDS011;74605;45.864;11.474;2024-01-30T13:26:39;33.60;;;6.27;;
78027;SDS011;74605;45.864;11.474;2024-01-30T13:29:06;13.65;;;3.67;;
78027;SDS011;74605;45.864;11.474;2024-01-30T13:31:32;11.68;;;3.25;;
78027;SDS011;74605;45.864;11.474;2024-01-30T13:33:59;31.27;;;6.15;;
78027;SDS011;74605;45.864;11.474;2024-01-30T13:36:25;13.88;;;3.33;;
78027;SDS011;74605;45.864;11.474;2024-01-30T13:38:52;21.83;;;4.27;;
78027;SDS011;74605;45.864;11.474;2024-01-30T13:41:18;12.48;;;3.75;;
78027;SDS011;74605;45.864;11.474;2024-01-30T13:43:44;23.88;;;4.68;;
78027;SDS011;74605;45.864;11.474;2024-01-30T13:46:10;41.17;;;8.88;;
78027;SDS011;74605;45.864;11.474;2024-01-30T13:48:36;21.98;;;7.20;;
78027;SDS011;74605;45.864;11.474;2024-01-30T13:51:02;8.27;;;3.50;;
78027;SDS011;74605;45.864;11.474;2024-01-30T13:53:29;18.83;;;5.70;;
78027;SDS011;74605;45.864;11.474;2024-01-30T13:55:55;41.05;;;8.65;;
78027;SDS011;74605;45.864;11.474;2024-01-30T13:58:21;45.72;;;9.35;;
78027;SDS011;74605;45.864;11.474;2024-01-30T14:00:47;48.15;;;9.80;;
78027;SDS011;74605;45.864;11.474;2024-01-30T14:03:14;33.23;;;7.80;;
78027;SDS011;74605;45.864;11.474;2024-01-30T14:05:40;13.13;;;6.05;;
78027;SDS011;74605;45.864;11.474;2024-01-30T14:08:06;16.10;;;5.90;;
78027;SDS011;74605;45.864;11.474;2024-01-30T14:10:34;32.75;;;11.00;;
78027;SDS011;74605;45.864;11.474;2024-01-30T14:13:00;31.63;;;8.52;;
78027;SDS011;74605;45.864;11.474;2024-01-30T14:15:26;12.50;;;5.30;;
78027;SDS011;74605;45.864;11.474;2024-01-30T14:17:52;29.67;;;6.57;;
78027;SDS011;74605;45.864;11.474;2024-01-30T14:20:18;14.07;;;5.35;;
78027;SDS011;74605;45.864;11.474;2024-01-30T14:22:45;19.45;;;5.68;;
78027;SDS011;74605;45.864;11.474;2024-01-30T14:25:11;31.37;;;8.93;;
78027;SDS011;74605;45.864;11.474;2024-01-30T14:27:37;23.38;;;6.05;;
78027;SDS011;74605;45.864;11.474;2024-01-30T14:30:04;28.33;;;7.05;;
78027;SDS011;74605;45.864;11.474;2024-01-30T14:32:30;26.40;;;6.80;;